createdAt,value
2022-12-09T00:02:19.034Z,12.37
2022-12-09T00:04:45.985Z,12.77
2022-12-09T00:07:12.787Z,12.80
2022-12-09T00:09:39.371Z,12.17
2022-12-09T00:12:06.128Z,12.43
2022-12-09T00:14:32.782Z,13.00
2022-12-09T00:16:59.675Z,13.20
2022-12-09T00:19:26.756Z,13.10
2022-12-09T00:21:53.417Z,12.13
2022-12-09T00:24:20.027Z,12.20
2022-12-09T00:26:46.954Z,12.70
2022-12-09T00:29:13.711Z,11.70
2022-12-09T00:31:40.373Z,11.40
2022-12-09T00:34:10.406Z,12.00
2022-12-09T00:36:38.343Z,11.40
2022-12-09T00:39:05.328Z,11.57
2022-12-09T00:41:32.069Z,11.10
2022-12-09T00:43:59.430Z,12.37
2022-12-09T00:46:26.832Z,11.77
2022-12-09T00:48:53.779Z,11.20
2022-12-09T00:51:23.157Z,12.50
2022-12-09T00:53:55.944Z,12.90
2022-12-09T00:56:25.439Z,21.30
2022-12-09T00:58:52.740Z,19.10
2022-12-09T01:01:20.316Z,21.13
2022-12-09T01:03:47.193Z,17.37
2022-12-09T01:06:19.325Z,21.10
2022-12-09T01:08:47.100Z,17.37
2022-12-09T01:11:27.141Z,16.37
2022-12-09T01:13:57.680Z,14.00
2022-12-09T01:16:27.544Z,14.10
2022-12-09T01:18:57.334Z,18.50
2022-12-09T01:21:24.592Z,14.70
2022-12-09T01:23:51.506Z,17.97
2022-12-09T01:26:18.084Z,16.40
2022-12-09T01:28:44.975Z,14.70
2022-12-09T01:31:17.853Z,14.40
2022-12-09T01:33:45.319Z,13.67
2022-12-09T01:36:18.877Z,15.20
2022-12-09T01:38:47.387Z,14.33
2022-12-09T01:41:16.564Z,13.63
2022-12-09T01:43:44.044Z,14.77
2022-12-09T01:46:11.404Z,13.30
2022-12-09T01:48:42.286Z,13.30
2022-12-09T01:51:19.870Z,12.67
2022-12-09T01:53:49.640Z,13.80
2022-12-09T01:56:37.298Z,13.50
2022-12-09T01:59:12.864Z,13.30
2022-12-09T02:01:41.119Z,12.80
2022-12-09T02:04:08.016Z,13.90
2022-12-09T02:06:39.170Z,13.53
2022-12-09T02:09:09.531Z,15.77
2022-12-09T02:11:48.215Z,12.40
2022-12-09T02:14:42.990Z,11.83
2022-12-09T02:17:36.307Z,13.40
2022-12-09T02:20:16.148Z,12.63
2022-12-09T02:22:47.610Z,13.97
2022-12-09T02:25:30.875Z,12.43
2022-12-09T02:28:19.390Z,13.53
2022-12-09T02:31:02.337Z,14.17
2022-12-09T02:34:09.751Z,18.87
2022-12-09T02:37:00.366Z,14.97
2022-12-09T02:39:47.884Z,31.70
2022-12-09T02:42:18.721Z,18.87
2022-12-09T02:44:50.658Z,19.63
2022-12-09T02:47:24.476Z,12.33
2022-12-09T02:49:56.183Z,19.33
2022-12-09T02:52:24.280Z,16.27
2022-12-09T02:54:52.589Z,18.03
2022-12-09T02:57:24.636Z,14.00
2022-12-09T02:59:52.014Z,21.57
2022-12-09T03:02:26.336Z,16.40
2022-12-09T03:05:29.836Z,15.07
2022-12-09T03:08:12.063Z,18.30
2022-12-09T03:11:00.477Z,16.90
2022-12-09T03:14:04.385Z,17.37
2022-12-09T03:16:43.540Z,16.67
2022-12-09T03:19:23.448Z,12.50
2022-12-09T03:21:54.027Z,10.77
2022-12-09T03:24:24.916Z,12.90
2022-12-09T03:26:53.784Z,10.87
2022-12-09T03:29:25.601Z,11.70
2022-12-09T03:31:56.275Z,14.20
2022-12-09T03:34:29.720Z,9.50
2022-12-09T03:36:58.452Z,9.97
2022-12-09T03:39:30.135Z,13.73
2022-12-09T03:42:01.883Z,10.97
2022-12-09T03:44:44.643Z,11.90
2022-12-09T03:47:12.116Z,13.40
2022-12-09T03:49:39.751Z,10.03
2022-12-09T03:52:13.718Z,10.80
2022-12-09T03:54:46.115Z,11.90
2022-12-09T03:57:19.072Z,12.40
2022-12-09T03:59:58.692Z,11.40
2022-12-09T04:02:26.421Z,10.20
2022-12-09T04:07:22.831Z,12.40
2022-12-09T04:09:49.453Z,16.53
2022-12-09T04:12:16.451Z,12.70
2022-12-09T04:14:43.266Z,11.23
2022-12-09T04:17:11.921Z,11.97
2022-12-09T04:19:38.859Z,13.50
2022-12-09T04:22:05.549Z,13.00
2022-12-09T04:24:32.369Z,15.43
2022-12-09T04:26:58.901Z,15.03
2022-12-09T04:29:25.488Z,15.20
2022-12-09T04:31:52.442Z,12.03
2022-12-09T04:34:19.237Z,14.10
2022-12-09T04:36:46.158Z,12.23
2022-12-09T04:39:12.734Z,12.53
2022-12-09T04:41:39.292Z,12.03
2022-12-09T04:44:06.537Z,10.90
2022-12-09T04:46:33.306Z,18.97
2022-12-09T04:49:00.048Z,13.30
2022-12-09T04:51:26.976Z,11.90
2022-12-09T04:53:53.852Z,12.40
2022-12-09T04:56:21.502Z,13.30
2022-12-09T04:58:49.968Z,11.73
2022-12-09T05:01:28.170Z,11.77
2022-12-09T05:03:57.653Z,12.27
2022-12-09T05:06:24.725Z,10.80
2022-12-09T05:08:52.189Z,12.60
2022-12-09T05:11:20.931Z,10.63
2022-12-09T05:13:47.975Z,11.47
2022-12-09T05:16:17.440Z,10.93
2022-12-09T05:18:46.583Z,10.27
2022-12-09T05:21:16.767Z,11.40
2022-12-09T05:23:44.353Z,9.77
2022-12-09T05:26:15.244Z,9.50
2022-12-09T05:28:42.488Z,9.10
2022-12-09T05:31:14.844Z,10.67
2022-12-09T05:33:42.292Z,9.17
2022-12-09T05:36:11.704Z,9.70
2022-12-09T05:38:39.201Z,9.60
2022-12-09T05:41:06.022Z,10.13
2022-12-09T05:43:34.039Z,9.47
2022-12-09T05:46:01.254Z,13.17
2022-12-09T05:48:28.663Z,9.53
2022-12-09T05:50:58.269Z,11.80
2022-12-09T05:53:25.356Z,9.40
2022-12-09T05:55:52.552Z,9.93
2022-12-09T05:58:21.107Z,10.67
2022-12-09T06:00:48.513Z,10.10
2022-12-09T06:03:16.217Z,10.60
2022-12-09T06:05:44.428Z,10.03
2022-12-09T06:08:11.957Z,11.80
2022-12-09T06:10:40.640Z,10.93
2022-12-09T06:13:07.887Z,11.53
2022-12-09T06:15:35.152Z,11.10
2022-12-09T06:18:02.357Z,11.17
2022-12-09T06:20:29.820Z,12.70
2022-12-09T06:22:56.979Z,12.33
2022-12-09T06:25:23.963Z,11.43
2022-12-09T06:27:52.723Z,10.20
2022-12-09T06:30:19.732Z,10.43
2022-12-09T06:32:46.784Z,10.10
2022-12-09T06:35:13.969Z,10.20
2022-12-09T06:37:41.665Z,10.90
2022-12-09T06:40:09.420Z,11.83
2022-12-09T06:42:36.338Z,14.27
2022-12-09T06:45:04.017Z,13.97
2022-12-09T06:47:31.299Z,17.47
2022-12-09T06:50:06.560Z,12.90
2022-12-09T06:52:34.805Z,12.50
2022-12-09T06:55:02.201Z,10.90
2022-12-09T06:57:29.444Z,11.70
2022-12-09T06:59:56.441Z,10.63
2022-12-09T07:02:23.854Z,11.97
2022-12-09T07:04:54.795Z,10.57
2022-12-09T07:07:22.610Z,10.50
2022-12-09T07:09:49.546Z,10.00
2022-12-09T07:12:16.585Z,9.83
2022-12-09T07:14:43.762Z,10.70
2022-12-09T07:17:16.974Z,10.57
2022-12-09T07:19:45.261Z,10.90
2022-12-09T07:22:13.428Z,10.40
2022-12-09T07:24:40.762Z,10.27
2022-12-09T07:27:13.008Z,10.50
2022-12-09T07:29:42.632Z,10.17
2022-12-09T07:32:10.841Z,10.10
2022-12-09T07:34:40.645Z,11.50
2022-12-09T07:37:07.298Z,15.47
2022-12-09T07:39:34.191Z,14.50
2022-12-09T07:42:00.882Z,15.10
2022-12-09T07:44:30.419Z,14.70
2022-12-09T07:46:57.513Z,17.83
2022-12-09T07:49:24.910Z,18.00
2022-12-09T07:51:52.150Z,17.03
2022-12-09T07:54:20.472Z,18.47
2022-12-09T07:56:48.149Z,15.00
2022-12-09T07:59:16.182Z,14.33
2022-12-09T08:01:43.847Z,13.90
2022-12-09T08:04:11.158Z,15.17
2022-12-09T08:06:39.123Z,19.50
2022-12-09T08:09:10.689Z,14.03
2022-12-09T08:11:38.536Z,14.03
2022-12-09T08:14:12.307Z,13.53
2022-12-09T08:16:41.979Z,14.13
2022-12-09T08:19:10.310Z,12.17
2022-12-09T08:21:38.297Z,12.60
2022-12-09T08:24:07.740Z,15.93
2022-12-09T08:26:37.614Z,14.87
2022-12-09T08:29:12.303Z,14.03
2022-12-09T08:31:42.378Z,14.03
2022-12-09T08:34:10.000Z,14.90
2022-12-09T08:36:37.201Z,14.40
2022-12-09T08:39:05.073Z,13.83
2022-12-09T08:41:36.364Z,15.27
2022-12-09T08:44:11.418Z,15.20
2022-12-09T08:46:40.123Z,15.00
2022-12-09T08:49:07.562Z,15.90
2022-12-09T08:51:35.842Z,13.70
2022-12-09T08:54:04.245Z,16.10
2022-12-09T08:56:31.389Z,16.57
2022-12-09T08:58:58.781Z,19.20
2022-12-09T09:01:32.680Z,20.10
2022-12-09T09:04:06.864Z,16.40
2022-12-09T09:06:35.164Z,14.57
2022-12-09T09:09:02.503Z,14.53
2022-12-09T09:11:29.871Z,13.10
2022-12-09T09:13:56.965Z,13.30
2022-12-09T09:16:26.382Z,12.73
2022-12-09T09:18:53.498Z,12.60
2022-12-09T09:21:24.266Z,12.80
2022-12-09T09:23:51.182Z,12.30
2022-12-09T09:26:24.621Z,13.10
2022-12-09T09:28:52.397Z,13.60
2022-12-09T09:31:21.620Z,14.13
2022-12-09T09:33:49.958Z,13.03
2022-12-09T09:36:22.758Z,12.40
2022-12-09T09:38:51.487Z,12.03
2022-12-09T09:42:08.782Z,12.40
2022-12-09T09:44:45.482Z,12.60
2022-12-09T09:47:19.872Z,12.77
2022-12-09T09:49:57.978Z,13.10
2022-12-09T09:52:27.475Z,13.30
2022-12-09T09:54:56.271Z,13.00
2022-12-09T09:57:32.679Z,12.40
2022-12-09T10:00:09.363Z,13.23
2022-12-09T10:03:10.893Z,11.10
2022-12-09T10:05:53.057Z,12.67
2022-12-09T10:08:43.582Z,11.50
2022-12-09T10:11:30.612Z,9.60
2022-12-09T10:14:22.570Z,12.03
2022-12-09T10:16:59.426Z,9.83
2022-12-09T10:19:35.290Z,11.50
2022-12-09T10:22:18.207Z,11.03
2022-12-09T10:24:52.516Z,11.00
2022-12-09T10:27:35.833Z,11.93
2022-12-09T10:30:15.834Z,11.73
2022-12-09T10:32:43.249Z,11.83
2022-12-09T10:35:19.889Z,11.93
2022-12-09T10:37:49.871Z,13.17
2022-12-09T10:40:38.218Z,10.80
2022-12-09T10:43:37.495Z,11.70
2022-12-09T10:46:23.188Z,11.60
2022-12-09T10:48:50.497Z,12.73
2022-12-09T10:51:36.398Z,11.77
2022-12-09T10:54:09.694Z,15.10
2022-12-09T10:56:38.704Z,13.93
2022-12-09T10:59:22.573Z,14.10
2022-12-09T11:01:55.950Z,12.20
2022-12-09T11:04:26.427Z,11.83
2022-12-09T11:07:00.215Z,13.07
2022-12-09T11:09:32.115Z,12.07
2022-12-09T11:12:01.181Z,12.33
2022-12-09T11:14:35.854Z,13.00
2022-12-09T11:17:16.725Z,13.83
2022-12-09T11:19:47.966Z,12.20
2022-12-09T11:22:39.910Z,13.27
2022-12-09T11:25:22.958Z,12.47
2022-12-09T11:27:57.757Z,11.67
2022-12-09T11:31:27.610Z,12.70
2022-12-09T11:33:53.346Z,12.80
2022-12-09T11:36:29.917Z,13.90
2022-12-09T11:39:19.555Z,13.80
2022-12-09T11:42:16.544Z,13.13
2022-12-09T11:44:59.085Z,13.67
2022-12-09T11:50:32.611Z,14.33
2022-12-09T11:53:12.053Z,12.43
2022-12-09T11:55:46.331Z,14.87
2022-12-09T11:58:22.367Z,15.97
2022-12-09T12:01:05.473Z,15.40
2022-12-09T12:03:39.560Z,14.93
2022-12-09T12:06:15.062Z,14.80
2022-12-09T12:08:51.454Z,14.20
2022-12-09T12:11:28.839Z,14.33
2022-12-09T12:14:12.763Z,14.30
2022-12-09T12:17:04.406Z,13.80
2022-12-09T12:19:38.671Z,12.87
2022-12-09T12:22:07.957Z,14.30
2022-12-09T12:24:53.629Z,13.70
2022-12-09T12:27:50.716Z,14.43
2022-12-09T12:30:20.775Z,13.17
2022-12-09T12:36:24.501Z,14.00
2022-12-09T12:39:16.190Z,13.60
2022-12-09T12:42:09.760Z,14.03
2022-12-09T12:45:08.964Z,13.83
2022-12-09T12:47:46.865Z,13.90
2022-12-09T12:50:25.147Z,13.67
2022-12-09T12:53:16.730Z,14.13
2022-12-09T12:55:49.243Z,13.50
2022-12-09T12:58:33.855Z,12.33
2022-12-09T13:01:06.615Z,13.43
2022-12-09T13:03:54.826Z,13.47
2022-12-09T13:06:36.861Z,12.80
2022-12-09T13:09:11.539Z,13.00
2022-12-09T13:12:00.246Z,12.47
2022-12-09T13:14:34.048Z,12.20
2022-12-09T13:17:05.184Z,12.17
2022-12-09T13:19:40.150Z,11.23
2022-12-09T13:22:19.287Z,12.07
2022-12-09T13:24:56.836Z,12.90
2022-12-09T13:27:31.449Z,12.60
2022-12-09T13:30:02.984Z,13.70
2022-12-09T13:32:33.395Z,12.90
2022-12-09T13:35:24.639Z,13.20
2022-12-09T13:37:52.349Z,13.27
2022-12-09T13:40:24.820Z,13.50
2022-12-09T13:43:16.633Z,11.90
2022-12-09T13:45:43.277Z,12.23
2022-12-09T13:48:16.821Z,12.37
2022-12-09T13:51:00.199Z,11.80
2022-12-09T13:53:33.904Z,12.73
2022-12-09T13:56:03.324Z,12.87
2022-12-09T13:58:46.916Z,12.20
2022-12-09T14:01:29.797Z,13.50
2022-12-09T14:04:14.680Z,13.27
2022-12-09T14:06:41.181Z,13.80
2022-12-09T14:09:35.126Z,12.67
2022-12-09T14:12:26.345Z,12.90
2022-12-09T14:14:58.504Z,13.57
2022-12-09T14:17:25.631Z,14.00
2022-12-09T14:20:28.218Z,13.97
2022-12-09T14:23:07.434Z,15.47
2022-12-09T14:25:34.000Z,15.43
2022-12-09T14:28:10.152Z,18.50
2022-12-09T14:31:03.441Z,16.23
2022-12-09T14:33:43.096Z,15.80
2022-12-09T14:36:15.578Z,15.13
2022-12-09T14:39:26.603Z,14.47
2022-12-09T14:42:05.533Z,15.70
2022-12-09T14:44:40.008Z,15.50
2022-12-09T14:47:25.010Z,15.03
2022-12-09T14:49:53.953Z,15.47
2022-12-09T14:52:28.929Z,14.33
2022-12-09T14:54:59.103Z,14.90
2022-12-09T14:57:34.344Z,16.57
2022-12-09T15:00:01.452Z,15.83
2022-12-09T15:02:30.500Z,15.17
2022-12-09T15:05:00.096Z,15.57
2022-12-09T15:07:31.632Z,14.57
2022-12-09T15:10:07.514Z,15.70
2022-12-09T15:12:43.907Z,13.90
2022-12-09T15:15:10.586Z,16.30
2022-12-09T15:17:43.347Z,15.90
2022-12-09T15:20:38.292Z,15.83
2022-12-09T15:23:18.829Z,17.30
2022-12-09T15:25:51.490Z,16.93
2022-12-09T15:28:26.249Z,14.83
2022-12-09T15:31:02.010Z,16.60
2022-12-09T15:33:32.267Z,16.33
2022-12-09T15:36:03.462Z,15.97
2022-12-09T15:38:42.352Z,18.60
2022-12-09T15:41:28.765Z,16.50
2022-12-09T15:44:00.513Z,19.50
2022-12-09T15:46:28.666Z,17.60
2022-12-09T15:48:58.595Z,17.00
2022-12-09T15:51:28.256Z,15.50
2022-12-09T15:54:02.218Z,16.00
2022-12-09T15:56:38.165Z,15.43
2022-12-09T15:59:13.649Z,16.27
2022-12-09T16:01:46.858Z,16.07
2022-12-09T16:04:18.657Z,15.93
2022-12-09T16:06:45.825Z,15.70
2022-12-09T16:09:15.068Z,15.57
2022-12-09T16:11:49.973Z,15.00
2022-12-09T16:14:18.340Z,15.53
2022-12-09T16:17:02.735Z,17.00
2022-12-09T16:19:41.141Z,16.60
2022-12-09T16:22:11.043Z,15.57
2022-12-09T16:25:14.534Z,15.00
2022-12-09T16:27:37.173Z,14.97
2022-12-09T16:30:12.712Z,17.50
2022-12-09T16:32:47.494Z,16.10
2022-12-09T16:35:17.129Z,16.87
2022-12-09T16:37:55.636Z,16.20
2022-12-09T16:40:23.328Z,16.20
2022-12-09T16:42:52.615Z,16.70
2022-12-09T16:45:38.574Z,17.33
2022-12-09T16:48:05.511Z,18.40
2022-12-09T16:50:56.114Z,17.43
2022-12-09T16:53:33.703Z,17.83
2022-12-09T16:56:02.762Z,17.37
2022-12-09T16:58:32.770Z,16.97
2022-12-09T17:01:01.166Z,16.33
2022-12-09T17:03:38.072Z,16.43
2022-12-09T17:06:05.905Z,17.93
2022-12-09T17:08:32.586Z,17.53
2022-12-09T17:11:00.408Z,16.77
2022-12-09T17:13:27.737Z,19.13
2022-12-09T17:15:58.331Z,19.30
2022-12-09T17:18:26.156Z,20.00
2022-12-09T17:21:04.862Z,18.00
2022-12-09T17:23:39.121Z,15.40
2022-12-09T17:26:09.407Z,16.23
2022-12-09T17:28:37.234Z,16.73
2022-12-09T17:31:09.611Z,17.87
2022-12-09T17:33:36.412Z,18.37
2022-12-09T17:36:03.075Z,17.20
2022-12-09T17:38:29.708Z,15.90
2022-12-09T17:40:57.229Z,17.87
2022-12-09T17:43:25.117Z,17.37
2022-12-09T17:45:52.242Z,18.20
2022-12-09T17:48:18.865Z,17.40
2022-12-09T17:50:45.427Z,18.30
2022-12-09T17:53:12.477Z,17.07
2022-12-09T17:55:39.139Z,19.33
2022-12-09T17:58:05.762Z,18.00
2022-12-09T18:00:33.742Z,18.00
2022-12-09T18:03:01.345Z,17.77
2022-12-09T18:05:28.297Z,17.90
2022-12-09T18:07:54.884Z,17.50
2022-12-09T18:10:21.684Z,17.47
2022-12-09T18:12:48.219Z,17.70
2022-12-09T18:15:14.887Z,18.10
2022-12-09T18:17:41.471Z,17.80
2022-12-09T18:20:08.863Z,16.93
2022-12-09T18:22:35.694Z,17.63
2022-12-09T18:25:02.421Z,19.83
2022-12-09T18:27:29.849Z,17.97
2022-12-09T18:29:56.467Z,17.40
2022-12-09T18:32:23.242Z,16.03
2022-12-09T18:34:50.989Z,16.03
2022-12-09T18:37:19.517Z,17.80
2022-12-09T18:39:46.032Z,18.33
2022-12-09T18:42:12.599Z,20.33
2022-12-09T18:44:39.152Z,20.67
2022-12-09T18:47:05.655Z,19.30
2022-12-09T18:49:32.361Z,17.10
2022-12-09T18:51:58.992Z,18.70
2022-12-09T18:54:28.352Z,18.90
2022-12-09T18:56:56.197Z,18.30
2022-12-09T18:59:25.005Z,19.20
2022-12-09T19:01:52.607Z,18.90
2022-12-09T19:04:22.455Z,18.20
2022-12-09T19:06:50.974Z,20.10
2022-12-09T19:09:22.764Z,18.43
2022-12-09T19:11:50.923Z,19.13
2022-12-09T19:14:20.303Z,18.63
2022-12-09T19:16:47.535Z,18.23
2022-12-09T19:19:16.646Z,19.00
2022-12-09T19:21:43.577Z,18.30
2022-12-09T19:24:18.343Z,17.27
2022-12-09T19:26:45.240Z,17.43
2022-12-09T19:29:12.970Z,18.40
2022-12-09T19:31:42.898Z,16.30
2022-12-09T19:34:15.733Z,14.73
2022-12-09T19:36:43.552Z,16.83
2022-12-09T19:39:12.650Z,16.10
2022-12-09T19:41:40.442Z,17.07
2022-12-09T19:44:08.493Z,17.20
2022-12-09T19:46:35.527Z,17.50
2022-12-09T19:49:03.038Z,16.70
2022-12-09T19:51:30.313Z,17.13
2022-12-09T19:53:59.081Z,16.10
2022-12-09T19:56:26.397Z,15.07
2022-12-09T19:58:54.261Z,16.10
2022-12-09T20:01:47.114Z,16.47
2022-12-09T20:04:46.854Z,17.43
2022-12-09T20:07:07.677Z,15.13
2022-12-09T20:09:35.276Z,16.33
2022-12-09T20:12:01.833Z,15.17
2022-12-09T20:14:28.409Z,17.10
2022-12-09T20:16:55.108Z,16.57
2022-12-09T20:19:22.307Z,15.87
2022-12-09T20:21:48.887Z,15.30
2022-12-09T20:24:15.463Z,15.13
2022-12-09T20:26:42.079Z,16.37
2022-12-09T20:29:10.662Z,16.17
2022-12-09T20:31:39.185Z,16.47
2022-12-09T20:34:08.561Z,17.73
2022-12-09T20:36:37.054Z,24.13
2022-12-09T20:39:13.028Z,19.27
2022-12-09T20:41:41.619Z,17.47
2022-12-09T20:44:10.122Z,17.63
2022-12-09T20:46:36.752Z,16.00
2022-12-09T20:49:03.382Z,15.57
2022-12-09T20:51:38.523Z,16.07
2022-12-09T20:54:07.378Z,17.30
2022-12-09T20:56:35.645Z,15.70
2022-12-09T20:59:03.154Z,17.07
2022-12-09T21:01:32.451Z,17.37
2022-12-09T21:04:00.727Z,17.07
2022-12-09T21:06:31.427Z,15.50
2022-12-09T21:09:03.381Z,15.03
2022-12-09T21:11:30.276Z,15.90
2022-12-09T21:13:59.425Z,14.70
2022-12-09T21:16:29.066Z,16.43
2022-12-09T21:18:58.163Z,17.73
2022-12-09T21:21:26.861Z,17.30
2022-12-09T21:23:54.536Z,16.97
2022-12-09T21:26:22.903Z,17.30
2022-12-09T21:28:50.796Z,18.40
2022-12-09T21:31:23.436Z,16.60
2022-12-09T21:33:52.328Z,17.83
2022-12-09T21:36:21.294Z,16.83
2022-12-09T21:38:48.033Z,17.73
2022-12-09T21:41:17.407Z,18.27
2022-12-09T21:43:44.815Z,19.10
2022-12-09T21:46:18.831Z,18.40
2022-12-09T21:48:51.811Z,18.00
2022-12-09T21:51:19.655Z,18.63
2022-12-09T21:53:47.603Z,17.93
2022-12-09T21:56:19.718Z,16.97
2022-12-09T21:58:48.360Z,19.43
2022-12-09T22:01:19.392Z,18.50
2022-12-09T22:03:47.380Z,17.47
2022-12-09T22:06:15.337Z,18.67
2022-12-09T22:08:42.948Z,18.57
2022-12-09T22:11:13.937Z,17.33
2022-12-09T22:13:40.724Z,17.83
2022-12-09T22:16:16.534Z,18.77
2022-12-09T22:18:44.200Z,18.60
2022-12-09T22:21:24.716Z,16.80
2022-12-09T22:23:57.126Z,18.90
2022-12-09T22:26:24.384Z,18.93
2022-12-09T22:28:51.786Z,17.50
2022-12-09T22:31:26.052Z,18.70
2022-12-09T22:33:55.153Z,17.53
2022-12-09T22:36:22.408Z,18.37
2022-12-09T22:38:49.054Z,17.60
2022-12-09T22:41:21.292Z,17.10
2022-12-09T22:43:49.732Z,18.27
2022-12-09T22:46:19.639Z,17.27
2022-12-09T22:48:46.703Z,16.43
2022-12-09T22:51:16.276Z,19.10
2022-12-09T22:53:43.388Z,18.43
2022-12-09T22:56:11.765Z,18.00
2022-12-09T22:58:38.491Z,17.57
2022-12-09T23:01:11.088Z,16.60
2022-12-09T23:03:38.385Z,19.70
2022-12-09T23:06:05.886Z,17.87
2022-12-09T23:08:33.061Z,17.87
2022-12-09T23:11:05.056Z,18.47
2022-12-09T23:13:36.221Z,18.03
2022-12-09T23:16:12.249Z,16.30
2022-12-09T23:18:39.526Z,17.23
2022-12-09T23:21:12.269Z,16.83
2022-12-09T23:23:39.830Z,18.57
2022-12-09T23:26:15.062Z,18.57
2022-12-09T23:28:47.117Z,18.07
2022-12-09T23:31:15.874Z,17.00
2022-12-09T23:33:45.201Z,17.40
2022-12-09T23:36:17.887Z,16.77
2022-12-09T23:38:45.373Z,18.17
2022-12-09T23:41:12.533Z,18.63
2022-12-09T23:43:39.352Z,18.03
2022-12-09T23:46:14.879Z,15.60
2022-12-09T23:48:42.731Z,17.30
2022-12-09T23:51:11.835Z,16.40
2022-12-09T23:53:39.027Z,18.07
2022-12-09T23:56:06.649Z,16.63
2022-12-09T23:58:34.581Z,15.90
